Terminal Aerodrome Forecast
Issued by NWS

Home | Current Version | Previous Version | Text Only | Print | Product List | Glossary Off
Versions: 1 2 3 4 5 6 7 8 9 10 11 12 13 14 15 16 17

000
FTUS43 KMPX 240210 AAA
TAFRWF
TAF AMD
KRWF 240210Z 2402/2424 VRB05KT P6SM FEW250
      TEMPO 2402/2403 5SM HZ
     FM240400 12007KT P6SM BKN050 OVC080
     FM241200 13009KT P6SM VCSH OVC040
     FM241500 14013G19KT 6SM -SHRA OVC030
     FM241800 14016G23KT 6SM -SHRA OVC025=

USA.gov is the U.S. government's official web portal to all federal, state and local government web resources and services.